createdAt,value
2023-02-23T00:01:15.644Z,14.30
2023-02-23T00:03:43.873Z,15.50
2023-02-23T00:06:12.158Z,16.53
2023-02-23T00:08:39.675Z,16.43
2023-02-23T00:11:08.211Z,20.87
2023-02-23T00:13:38.378Z,13.03
2023-02-23T00:16:07.427Z,22.13
2023-02-23T00:18:45.029Z,19.83
2023-02-23T00:21:24.318Z,19.03
2023-02-23T00:23:53.076Z,23.27
2023-02-23T00:26:21.170Z,17.07
2023-02-23T00:28:51.062Z,22.53
2023-02-23T00:31:19.295Z,19.07
2023-02-23T00:33:47.057Z,20.63
2023-02-23T00:36:15.679Z,18.40
2023-02-23T00:38:45.938Z,21.10
2023-02-23T00:41:17.028Z,18.47
2023-02-23T00:43:47.513Z,26.03
2023-02-23T00:46:17.956Z,25.60
2023-02-23T00:48:45.998Z,18.63
2023-02-23T00:51:13.703Z,23.20
2023-02-23T00:53:41.326Z,24.40
2023-02-23T00:56:09.366Z,17.13
2023-02-23T00:58:36.916Z,20.93
2023-02-23T01:01:06.658Z,20.70
2023-02-23T01:03:35.764Z,19.47
2023-02-23T01:06:06.426Z,19.77
2023-02-23T01:08:34.624Z,19.03
2023-02-23T01:11:07.295Z,18.37
2023-02-23T01:13:35.095Z,18.07
2023-02-23T01:16:05.097Z,20.10
2023-02-23T01:18:34.964Z,21.93
2023-02-23T01:21:05.729Z,24.03
2023-02-23T01:23:33.276Z,15.17
2023-02-23T01:26:00.965Z,20.67
2023-02-23T01:28:28.425Z,21.50
2023-02-23T01:30:55.949Z,18.17
2023-02-23T01:33:23.527Z,22.37
2023-02-23T01:35:58.247Z,17.40
2023-02-23T01:38:27.209Z,19.67
2023-02-23T01:40:54.762Z,20.40
2023-02-23T01:43:26.049Z,19.40
2023-02-23T01:45:55.158Z,17.20
2023-02-23T01:48:24.036Z,20.13
2023-02-23T01:50:54.221Z,13.80
2023-02-23T01:53:22.713Z,39.40
2023-02-23T01:55:54.998Z,16.83
2023-02-23T01:58:23.730Z,18.47
2023-02-23T02:00:54.395Z,18.23
2023-02-23T02:03:25.613Z,19.30
2023-02-23T02:05:53.512Z,19.13
2023-02-23T02:08:24.259Z,35.23
2023-02-23T02:10:56.052Z,18.13
2023-02-23T02:13:26.088Z,19.17
2023-02-23T02:16:08.902Z,20.10
2023-02-23T02:18:42.145Z,16.90
2023-02-23T02:21:17.911Z,279.93
2023-02-23T02:23:57.298Z,23.10
2023-02-23T02:26:31.479Z,18.07
2023-02-23T02:29:21.044Z,23.00
2023-02-23T02:31:59.522Z,18.63
2023-02-23T02:34:38.006Z,19.47
2023-02-23T02:37:12.878Z,16.40
2023-02-23T02:39:46.928Z,19.23
2023-02-23T02:42:19.053Z,18.37
2023-02-23T02:44:51.753Z,18.70
2023-02-23T02:47:21.703Z,15.80
2023-02-23T02:49:52.010Z,16.93
2023-02-23T02:52:25.225Z,19.47
2023-02-23T02:54:54.260Z,21.40
2023-02-23T02:57:23.722Z,20.00
2023-02-23T03:00:08.778Z,17.93
2023-02-23T03:02:58.388Z,15.47
2023-02-23T03:05:44.676Z,23.33
2023-02-23T03:08:36.142Z,17.33
2023-02-23T03:11:22.182Z,22.87
2023-02-23T03:14:12.486Z,16.60
2023-02-23T03:17:01.978Z,23.37
2023-02-23T03:19:48.979Z,23.03
2023-02-23T03:22:38.218Z,22.67
2023-02-23T03:25:27.364Z,20.70
2023-02-23T03:28:14.734Z,23.27
2023-02-23T03:31:06.827Z,21.70
2023-02-23T03:33:56.238Z,21.43
2023-02-23T03:36:43.791Z,22.43
2023-02-23T03:39:31.564Z,21.33
2023-02-23T03:42:20.974Z,21.60
2023-02-23T03:45:07.063Z,20.83
2023-02-23T03:47:53.906Z,28.33
2023-02-23T03:50:41.606Z,32.73
2023-02-23T03:53:28.294Z,27.30
2023-02-23T03:56:14.933Z,24.97
2023-02-23T03:59:04.472Z,23.63
2023-02-23T04:01:50.507Z,24.43
2023-02-23T04:04:35.665Z,26.10
2023-02-23T04:07:21.904Z,25.63
2023-02-23T04:10:07.050Z,29.20
2023-02-23T04:12:55.858Z,22.03
2023-02-23T04:15:27.988Z,21.23
2023-02-23T04:17:55.504Z,22.93
2023-02-23T04:20:23.739Z,19.93
2023-02-23T04:22:51.496Z,23.13
2023-02-23T04:25:20.344Z,23.30
2023-02-23T04:27:47.789Z,22.73
2023-02-23T04:30:15.593Z,19.30
2023-02-23T04:32:46.269Z,24.17
2023-02-23T04:35:14.184Z,23.93
2023-02-23T04:37:41.755Z,22.47
2023-02-23T04:40:10.911Z,21.63
2023-02-23T04:42:39.144Z,23.37
2023-02-23T04:45:07.172Z,24.80
2023-02-23T04:47:35.092Z,23.00
2023-02-23T04:50:04.533Z,23.00
2023-02-23T04:52:32.796Z,24.80
2023-02-23T04:55:00.240Z,24.57
2023-02-23T04:57:28.983Z,20.87
2023-02-23T04:59:56.654Z,22.30
2023-02-23T05:02:24.376Z,19.80
2023-02-23T05:04:51.951Z,22.43
2023-02-23T05:07:20.829Z,26.87
2023-02-23T05:09:48.296Z,18.27
2023-02-23T05:12:16.223Z,20.87
2023-02-23T05:14:43.696Z,26.23
2023-02-23T05:17:11.204Z,22.73
2023-02-23T05:19:38.891Z,20.87
2023-02-23T05:22:06.580Z,19.30
2023-02-23T05:24:36.707Z,18.70
2023-02-23T05:27:04.271Z,26.33
2023-02-23T05:29:31.823Z,24.57
2023-02-23T05:31:59.446Z,27.17
2023-02-23T05:34:27.234Z,30.53
2023-02-23T05:36:55.283Z,31.73
2023-02-23T05:39:23.069Z,34.20
2023-02-23T05:41:52.595Z,31.43
2023-02-23T05:44:20.396Z,33.27
2023-02-23T05:46:48.727Z,35.77
2023-02-23T05:49:16.224Z,36.10
2023-02-23T05:51:43.651Z,36.50
2023-02-23T05:54:11.480Z,36.53
2023-02-23T05:56:39.298Z,41.97
2023-02-23T05:59:08.151Z,46.63
2023-02-23T06:01:36.019Z,45.37
2023-02-23T06:04:05.273Z,46.63
2023-02-23T06:06:33.762Z,45.63
2023-02-23T06:09:01.687Z,33.67
2023-02-23T06:11:29.278Z,37.63
2023-02-23T06:13:59.335Z,40.83
2023-02-23T06:16:28.564Z,44.47
2023-02-23T06:18:56.142Z,45.00
2023-02-23T06:21:23.535Z,44.57
2023-02-23T06:23:51.338Z,46.43
2023-02-23T06:26:18.851Z,41.13
2023-02-23T06:28:46.252Z,47.70
2023-02-23T06:31:13.856Z,38.93
2023-02-23T06:33:42.710Z,35.00
2023-02-23T06:36:10.789Z,37.67
2023-02-23T06:38:38.244Z,43.00
2023-02-23T06:41:10.072Z,39.83
2023-02-23T06:43:37.606Z,43.00
2023-02-23T06:46:06.270Z,46.00
2023-02-23T06:48:35.609Z,45.67
2023-02-23T06:51:04.570Z,43.27
2023-02-23T06:53:33.429Z,46.27
2023-02-23T06:56:01.516Z,47.47
2023-02-23T06:58:29.345Z,51.83
2023-02-23T07:00:58.847Z,49.53
2023-02-23T07:03:26.695Z,51.80
2023-02-23T07:05:54.575Z,54.27
2023-02-23T07:08:23.658Z,50.27
2023-02-23T07:10:51.310Z,48.83
2023-02-23T07:13:20.449Z,48.77
2023-02-23T07:15:48.378Z,48.97
2023-02-23T07:18:16.346Z,47.07
2023-02-23T07:20:44.157Z,50.83
2023-02-23T07:23:11.664Z,46.63
2023-02-23T07:25:40.506Z,49.80
2023-02-23T07:28:07.948Z,49.23
2023-02-23T07:30:35.428Z,50.73
2023-02-23T07:33:02.921Z,45.63
2023-02-23T07:35:30.346Z,52.37
2023-02-23T07:37:57.835Z,59.47
2023-02-23T07:40:25.585Z,50.17
2023-02-23T07:42:55.516Z,54.93
2023-02-23T07:45:24.865Z,52.63
2023-02-23T07:47:52.571Z,50.53
2023-02-23T07:50:20.117Z,53.27
2023-02-23T07:52:47.594Z,54.77
2023-02-23T07:55:15.134Z,57.17
2023-02-23T07:57:42.739Z,57.07
2023-02-23T08:00:13.037Z,64.77
2023-02-23T08:02:40.623Z,62.07
2023-02-23T08:05:08.539Z,75.63
2023-02-23T08:07:36.041Z,69.97
2023-02-23T08:10:03.519Z,64.57
2023-02-23T08:12:33.260Z,68.03
2023-02-23T08:15:01.004Z,73.07
2023-02-23T08:17:30.333Z,65.07
2023-02-23T08:19:57.849Z,58.20
2023-02-23T08:22:25.275Z,64.60
2023-02-23T08:24:53.829Z,63.30
2023-02-23T08:27:21.770Z,64.90
2023-02-23T08:29:49.327Z,54.37
2023-02-23T08:32:18.030Z,60.13
2023-02-23T08:34:47.018Z,55.23
2023-02-23T08:37:14.606Z,53.27
2023-02-23T08:39:43.615Z,58.73
2023-02-23T08:42:11.054Z,55.70
2023-02-23T08:44:38.535Z,55.80
2023-02-23T08:47:06.084Z,56.73
2023-02-23T08:49:33.601Z,59.07
2023-02-23T08:52:02.577Z,51.50
2023-02-23T08:54:30.552Z,60.33
2023-02-23T08:56:58.796Z,58.50
2023-02-23T08:59:27.100Z,52.70
2023-02-23T09:01:54.655Z,56.27
2023-02-23T09:04:22.356Z,58.33
2023-02-23T09:06:50.197Z,56.03
2023-02-23T09:09:19.099Z,55.97
2023-02-23T09:11:46.658Z,52.80
2023-02-23T09:14:14.104Z,48.60
2023-02-23T09:16:41.593Z,49.47
2023-02-23T09:19:09.067Z,46.20
2023-02-23T09:21:36.484Z,47.00
2023-02-23T09:24:04.075Z,47.00
2023-02-23T09:26:35.945Z,46.50
2023-02-23T09:29:03.791Z,49.03
2023-02-23T09:31:31.233Z,54.83
2023-02-23T09:34:00.268Z,51.17
2023-02-23T09:36:28.323Z,48.63
2023-02-23T09:38:57.608Z,54.63
2023-02-23T09:41:36.046Z,49.00
2023-02-23T09:44:08.388Z,51.30
2023-02-23T09:46:39.283Z,46.77
2023-02-23T09:49:12.759Z,51.60
2023-02-23T09:51:42.699Z,45.87
2023-02-23T09:54:11.859Z,51.80
2023-02-23T09:56:40.084Z,49.33
2023-02-23T09:59:14.292Z,53.47
2023-02-23T10:01:47.596Z,51.60
2023-02-23T10:04:18.122Z,49.33
2023-02-23T10:06:49.664Z,53.93
2023-02-23T10:09:20.461Z,48.43
2023-02-23T10:11:52.741Z,51.63
2023-02-23T10:14:38.034Z,49.67
2023-02-23T10:17:10.769Z,52.90
2023-02-23T10:19:44.431Z,52.03
2023-02-23T10:22:13.446Z,55.33
2023-02-23T10:24:43.656Z,50.20
2023-02-23T10:27:12.086Z,48.70
2023-02-23T10:29:43.065Z,43.73
2023-02-23T10:32:16.432Z,56.77
2023-02-23T10:34:45.103Z,57.33
2023-02-23T10:37:13.627Z,55.47
2023-02-23T10:39:42.091Z,63.00
2023-02-23T10:42:18.974Z,63.27
2023-02-23T10:44:47.996Z,64.93
2023-02-23T10:47:16.615Z,75.30
2023-02-23T10:49:45.925Z,66.50
2023-02-23T10:52:14.695Z,73.93
2023-02-23T10:54:47.537Z,69.60
2023-02-23T10:57:21.292Z,73.37
2023-02-23T11:00:15.931Z,72.93
2023-02-23T11:02:46.512Z,70.37
2023-02-23T11:05:28.811Z,70.83
2023-02-23T11:08:10.185Z,70.70
2023-02-23T11:10:37.719Z,84.63
2023-02-23T11:13:05.174Z,79.90
2023-02-23T11:15:49.089Z,76.20
2023-02-23T11:18:22.410Z,73.93
2023-02-23T11:20:50.411Z,82.00
2023-02-23T11:23:21.208Z,80.73
2023-02-23T11:25:49.584Z,80.20
2023-02-23T11:28:20.915Z,76.77
2023-02-23T11:30:48.781Z,70.27
2023-02-23T11:33:17.578Z,78.03
2023-02-23T11:35:46.825Z,79.87
2023-02-23T11:38:22.628Z,76.97
2023-02-23T11:40:59.697Z,84.20
2023-02-23T11:43:27.230Z,80.57
2023-02-23T11:45:56.519Z,79.60
2023-02-23T11:48:27.554Z,78.80
2023-02-23T11:50:57.129Z,79.87
2023-02-23T11:53:29.847Z,84.30
2023-02-23T11:56:02.643Z,79.30
2023-02-23T11:58:36.047Z,79.03
2023-02-23T12:01:11.142Z,77.77
2023-02-23T12:03:44.173Z,72.17
2023-02-23T12:06:13.050Z,66.93
2023-02-23T12:08:44.094Z,70.13
2023-02-23T12:11:13.536Z,74.87
2023-02-23T12:13:43.243Z,73.80
2023-02-23T12:16:14.089Z,71.30
2023-02-23T12:18:45.290Z,71.27
2023-02-23T12:21:24.449Z,70.10
2023-02-23T12:23:54.986Z,77.03
2023-02-23T12:26:26.656Z,72.03
2023-02-23T12:28:59.011Z,72.37
2023-02-23T12:31:28.758Z,69.30
2023-02-23T12:33:58.931Z,78.93
2023-02-23T12:36:33.344Z,76.77
2023-02-23T12:39:04.659Z,69.20
2023-02-23T12:41:37.215Z,76.33
2023-02-23T12:44:13.600Z,86.13
2023-02-23T12:46:47.574Z,80.10
2023-02-23T12:49:18.016Z,80.73
2023-02-23T12:51:52.313Z,78.13
2023-02-23T12:54:19.877Z,74.63
2023-02-23T12:56:56.497Z,74.83
2023-02-23T12:59:45.203Z,70.87
2023-02-23T13:02:16.409Z,80.00
2023-02-23T13:04:50.414Z,75.83
2023-02-23T13:07:21.826Z,76.97
2023-02-23T13:09:55.032Z,77.27
2023-02-23T13:12:28.566Z,79.93
2023-02-23T13:15:00.227Z,73.40
2023-02-23T13:17:37.718Z,79.97
2023-02-23T13:20:10.263Z,70.30
2023-02-23T13:22:43.774Z,71.23
2023-02-23T13:25:17.853Z,74.17
2023-02-23T13:27:48.968Z,67.67
2023-02-23T13:30:17.112Z,70.70
2023-02-23T13:32:45.814Z,67.77
2023-02-23T13:35:15.728Z,73.60
2023-02-23T13:37:48.105Z,66.07
2023-02-23T13:40:24.770Z,78.90
2023-02-23T13:43:00.105Z,75.70
2023-02-23T13:45:32.473Z,73.20
2023-02-23T13:48:03.702Z,78.47
2023-02-23T13:50:37.709Z,72.13
2023-02-23T13:53:08.911Z,71.67
2023-02-23T13:55:49.881Z,68.93
2023-02-23T13:58:20.051Z,72.23
2023-02-23T14:00:54.356Z,75.37
2023-02-23T14:03:24.293Z,75.00
2023-02-23T14:05:53.991Z,62.43
2023-02-23T14:08:27.224Z,64.80
2023-02-23T14:10:59.363Z,63.23
2023-02-23T14:13:28.821Z,64.97
2023-02-23T14:16:11.828Z,64.40
2023-02-23T14:18:51.867Z,64.17
2023-02-23T14:21:24.543Z,63.47
2023-02-23T14:23:55.712Z,67.53
2023-02-23T14:26:40.072Z,69.30
2023-02-23T14:29:26.609Z,66.83
2023-02-23T14:31:55.441Z,62.30
2023-02-23T14:34:24.001Z,63.03
2023-02-23T14:36:56.810Z,66.07
2023-02-23T14:39:27.002Z,69.83
2023-02-23T14:41:55.508Z,67.40
2023-02-23T14:44:30.014Z,70.93
2023-02-23T14:47:01.887Z,68.10
2023-02-23T14:49:32.485Z,68.73
2023-02-23T14:52:05.720Z,69.43
2023-02-23T14:54:35.710Z,79.97
2023-02-23T14:57:04.973Z,67.37
2023-02-23T14:59:37.811Z,71.70
2023-02-23T15:02:09.249Z,68.13
2023-02-23T15:04:39.807Z,70.47
2023-02-23T15:07:07.996Z,70.13
2023-02-23T15:09:39.335Z,66.53
2023-02-23T15:12:17.741Z,74.47
2023-02-23T15:14:51.008Z,72.87
2023-02-23T15:17:20.598Z,74.07
2023-02-23T15:19:50.010Z,72.53
2023-02-23T15:22:25.944Z,79.03
2023-02-23T15:24:57.103Z,65.97
2023-02-23T15:27:29.626Z,61.00
2023-02-23T15:29:57.211Z,62.77
2023-02-23T15:32:26.296Z,59.17
2023-02-23T15:34:55.532Z,54.77
2023-02-23T15:37:27.959Z,52.70
2023-02-23T15:39:59.748Z,48.20
2023-02-23T15:42:39.913Z,46.77
2023-02-23T15:45:15.883Z,33.73
2023-02-23T15:47:43.724Z,29.80
2023-02-23T15:50:34.911Z,30.33
2023-02-23T15:53:08.857Z,24.13
2023-02-23T15:55:38.756Z,25.73
2023-02-23T15:58:15.859Z,23.80
2023-02-23T16:00:44.280Z,20.20
2023-02-23T16:03:23.587Z,23.27
2023-02-23T16:05:55.930Z,24.27
2023-02-23T16:08:25.343Z,24.20
2023-02-23T16:10:57.579Z,21.87
2023-02-23T16:13:25.285Z,24.30
2023-02-23T16:15:54.951Z,25.37
2023-02-23T16:18:23.745Z,25.13
2023-02-23T16:20:56.341Z,23.97
2023-02-23T16:23:33.796Z,26.20
2023-02-23T16:26:10.160Z,26.60
2023-02-23T16:28:42.723Z,26.43
2023-02-23T16:31:14.175Z,27.00
2023-02-23T16:33:42.774Z,31.40
2023-02-23T16:36:16.031Z,27.50
2023-02-23T16:38:48.788Z,28.67
2023-02-23T16:41:21.360Z,27.57
2023-02-23T16:43:51.291Z,25.73
2023-02-23T16:46:19.807Z,28.83
2023-02-23T16:48:48.200Z,38.20
2023-02-23T16:51:16.730Z,32.40
2023-02-23T16:53:44.841Z,32.10
2023-02-23T16:56:15.168Z,36.27
2023-02-23T16:58:45.323Z,32.97
2023-02-23T17:01:14.566Z,30.47
2023-02-23T17:03:52.718Z,31.10
2023-02-23T17:06:20.921Z,31.27
2023-02-23T17:08:57.506Z,31.97
2023-02-23T17:11:26.471Z,34.60
2023-02-23T17:13:56.614Z,30.33
2023-02-23T17:16:27.917Z,30.27
2023-02-23T17:18:55.421Z,32.80
2023-02-23T17:21:24.059Z,32.50
2023-02-23T17:23:52.062Z,30.30
2023-02-23T17:26:21.091Z,29.80
2023-02-23T17:28:49.246Z,30.80
2023-02-23T17:31:20.574Z,32.03
2023-02-23T17:33:48.870Z,29.97
2023-02-23T17:36:17.447Z,30.53
2023-02-23T17:38:45.212Z,25.77
2023-02-23T17:41:14.300Z,31.43
2023-02-23T17:43:42.035Z,29.43
2023-02-23T17:46:09.841Z,28.87
2023-02-23T17:48:40.794Z,30.20
2023-02-23T17:51:10.225Z,31.63
2023-02-23T17:53:37.721Z,29.97
2023-02-23T17:56:06.247Z,30.40
2023-02-23T17:58:33.820Z,31.37
2023-02-23T18:01:02.137Z,33.57
2023-02-23T18:03:31.773Z,36.93
2023-02-23T18:06:01.804Z,35.73
2023-02-23T18:08:29.451Z,48.63
2023-02-23T18:10:59.158Z,38.33
2023-02-23T18:13:27.215Z,37.13
2023-02-23T18:15:55.548Z,32.90
2023-02-23T18:18:23.901Z,32.57
2023-02-23T18:20:52.041Z,33.97
2023-02-23T18:23:22.626Z,32.10
2023-02-23T18:25:50.789Z,31.57
2023-02-23T18:28:18.675Z,34.37
2023-02-23T18:30:46.255Z,29.67
2023-02-23T18:33:14.340Z,30.70
2023-02-23T18:35:44.858Z,31.33
2023-02-23T18:38:13.991Z,42.80
2023-02-23T18:40:43.079Z,31.00
2023-02-23T18:43:11.107Z,34.17
2023-02-23T18:45:38.734Z,30.10
2023-02-23T18:48:10.110Z,26.50
2023-02-23T18:50:37.843Z,26.07
2023-02-23T18:53:06.225Z,23.93
2023-02-23T18:55:33.687Z,26.10
2023-02-23T18:58:05.015Z,26.80
2023-02-23T19:00:37.067Z,26.10
2023-02-23T19:03:04.669Z,24.27
2023-02-23T19:05:33.232Z,23.67
2023-02-23T19:08:00.761Z,21.37
2023-02-23T19:10:28.864Z,151.93
2023-02-23T19:12:56.294Z,19.37
2023-02-23T19:15:25.470Z,18.77
2023-02-23T19:17:54.618Z,19.47
2023-02-23T19:20:23.125Z,22.40
2023-02-23T19:22:50.616Z,21.20
2023-02-23T19:25:18.705Z,20.13
2023-02-23T19:27:46.182Z,19.87
2023-02-23T19:30:14.823Z,23.00
2023-02-23T19:32:44.224Z,20.20
2023-02-23T19:35:15.029Z,22.83
2023-02-23T19:37:47.458Z,23.37
2023-02-23T19:40:19.624Z,24.17
2023-02-23T19:42:47.578Z,22.23
2023-02-23T19:45:15.170Z,25.23
2023-02-23T19:47:44.408Z,19.83
2023-02-23T19:50:13.608Z,21.27
2023-02-23T19:52:44.531Z,27.77
2023-02-23T19:55:12.824Z,22.10
2023-02-23T19:57:40.289Z,22.63
2023-02-23T20:00:12.102Z,22.20
2023-02-23T20:02:42.680Z,24.00
2023-02-23T20:05:11.845Z,40.30
2023-02-23T20:07:41.772Z,22.93
2023-02-23T20:10:13.865Z,23.73
2023-02-23T20:12:44.311Z,23.37
2023-02-23T20:15:14.777Z,22.07
2023-02-23T20:17:42.543Z,19.30
2023-02-23T20:20:10.999Z,20.53
2023-02-23T20:22:41.301Z,19.07
2023-02-23T20:25:15.515Z,17.83
2023-02-23T20:27:43.965Z,17.33
2023-02-23T20:30:12.791Z,18.03
2023-02-23T20:32:40.592Z,20.43
2023-02-23T20:35:11.298Z,19.63
2023-02-23T20:37:40.157Z,19.67
2023-02-23T20:40:17.859Z,18.73
2023-02-23T20:42:47.814Z,20.67
2023-02-23T20:45:17.215Z,22.40
2023-02-23T20:47:45.783Z,19.47
2023-02-23T20:50:13.885Z,20.37
2023-02-23T20:52:45.889Z,23.27
2023-02-23T20:55:27.212Z,19.07
2023-02-23T20:57:55.426Z,21.27
2023-02-23T21:00:24.569Z,22.33
2023-02-23T21:02:55.488Z,19.50
2023-02-23T21:05:27.395Z,23.37
2023-02-23T21:08:00.011Z,19.57
2023-02-23T21:10:30.215Z,19.93
2023-02-23T21:12:58.769Z,22.03
2023-02-23T21:15:27.377Z,21.03
2023-02-23T21:17:55.229Z,22.73
2023-02-23T21:20:23.203Z,22.63
2023-02-23T21:22:51.173Z,21.57
2023-02-23T21:25:21.095Z,22.70
2023-02-23T21:27:49.781Z,19.27
2023-02-23T21:30:20.030Z,21.17
2023-02-23T21:32:47.885Z,22.47
2023-02-23T21:35:17.517Z,20.50
2023-02-23T21:37:45.255Z,17.97
2023-02-23T21:40:17.639Z,21.43
2023-02-23T21:42:50.822Z,21.17
2023-02-23T21:45:18.904Z,19.40
2023-02-23T21:47:47.841Z,18.63
2023-02-23T21:50:17.880Z,16.63
2023-02-23T21:52:46.913Z,23.40
2023-02-23T21:55:21.129Z,20.97
2023-02-23T21:57:51.141Z,20.17
2023-02-23T22:00:19.162Z,21.33
2023-02-23T22:02:47.709Z,19.10
2023-02-23T22:05:16.305Z,22.13
2023-02-23T22:07:48.237Z,24.03
2023-02-23T22:10:15.731Z,20.73
2023-02-23T22:12:43.307Z,22.30
2023-02-23T22:15:12.813Z,22.37
2023-02-23T22:17:40.238Z,20.17
2023-02-23T22:20:08.417Z,20.07
2023-02-23T22:22:36.353Z,21.43
2023-02-23T22:25:04.865Z,20.93
2023-02-23T22:27:33.003Z,22.07
2023-02-23T22:30:01.725Z,19.17
2023-02-23T22:32:32.939Z,24.17
2023-02-23T22:35:00.881Z,25.10
2023-02-23T22:37:29.930Z,26.03
2023-02-23T22:39:58.435Z,22.07
2023-02-23T22:42:29.260Z,23.57
2023-02-23T22:44:56.988Z,25.27
2023-02-23T22:47:24.523Z,34.83
2023-02-23T22:49:53.483Z,36.50
2023-02-23T22:52:21.951Z,30.10
2023-02-23T22:54:50.767Z,29.93
2023-02-23T22:57:18.131Z,25.43
2023-02-23T22:59:54.618Z,22.93
2023-02-23T23:02:22.732Z,24.07
2023-02-23T23:04:50.239Z,26.00
2023-02-23T23:07:20.194Z,25.60
2023-02-23T23:09:51.811Z,21.17
2023-02-23T23:12:19.242Z,28.73
2023-02-23T23:14:47.738Z,27.23
2023-02-23T23:17:15.474Z,22.07
2023-02-23T23:19:42.913Z,28.93
2023-02-23T23:22:14.461Z,27.57
2023-02-23T23:24:46.117Z,28.97
2023-02-23T23:27:16.110Z,27.70
2023-02-23T23:29:46.625Z,28.40
2023-02-23T23:32:17.833Z,35.93
2023-02-23T23:34:47.292Z,30.33
2023-02-23T23:37:15.322Z,24.20
2023-02-23T23:39:44.590Z,28.87
2023-02-23T23:42:12.297Z,26.20
2023-02-23T23:44:39.762Z,25.13
2023-02-23T23:47:08.105Z,17.80
2023-02-23T23:49:38.098Z,16.50
2023-02-23T23:52:06.104Z,18.33
2023-02-23T23:54:34.414Z,15.70
2023-02-23T23:57:03.219Z,17.37
2023-02-23T23:59:31.725Z,20.00
